Time;durP1;ratioP1;P1;durP2;ratioP2;P2;SDS_P1;SDS_P2;PMS_P1;PMS_P2;Temp;Humidity;BMP_temperature;BMP_pressure;BME280_temperature;BME280_humidity;BME280_pressure;Samples;Min_cycle;Max_cycle;Signal;HPM_P1;HPM_P2
2022/06/15 00:00:34;;;;;;;5.30;4.70;;;19.00;82.80;;;;;;5134434;27;20257;-68
2022/06/15 00:03:01;;;;;;;5.82;5.20;;;19.00;83.40;;;;;;5134342;27;20683;-68
2022/06/15 00:05:29;;;;;;;5.75;5.25;;;19.00;83.10;;;;;;5134483;27;20238;-68
2022/06/15 00:07:56;;;;;;;5.72;5.22;;;19.00;83.10;;;;;;5134426;27;20243;-68
2022/06/15 00:10:23;;;;;;;5.95;5.45;;;19.00;83.40;;;;;;5134278;27;20254;-68
2022/06/15 00:12:50;;;;;;;5.85;5.25;;;18.90;83.30;;;;;;5134494;27;20228;-68
2022/06/15 00:15:17;;;;;;;6.00;5.50;;;18.90;83.40;;;;;;5135716;27;20239;-69
2022/06/15 00:17:44;;;;;;;5.90;5.40;;;18.90;83.50;;;;;;5136066;27;20236;-69
2022/06/15 00:20:12;;;;;;;6.30;5.65;;;18.80;83.70;;;;;;5135085;27;20277;-68
2022/06/15 00:22:41;;;;;;;6.10;5.60;;;18.70;84.60;;;;;;5135261;27;20220;-68
2022/06/15 00:25:08;;;;;;;5.95;5.35;;;18.60;84.80;;;;;;5135958;27;20200;-68
2022/06/15 00:27:35;;;;;;;5.65;5.15;;;18.50;85.60;;;;;;5135664;27;20239;-68
2022/06/15 00:30:02;;;;;;;6.00;5.50;;;18.40;86.30;;;;;;5135464;27;20252;-68
2022/06/15 00:32:29;;;;;;;5.72;5.20;;;18.40;87.30;;;;;;5135086;27;20243;-68
2022/06/15 00:34:56;;;;;;;7.00;5.55;;;18.40;87.40;;;;;;5135708;27;20287;-68
2022/06/15 00:37:23;;;;;;;6.03;5.53;;;18.50;88.10;;;;;;5135302;27;20239;-68
2022/06/15 00:39:52;;;;;;;5.95;5.45;;;18.50;87.80;;;;;;5135348;27;20197;-68
2022/06/15 00:42:20;;;;;;;6.00;5.40;;;18.50;87.70;;;;;;5135133;27;20303;-68
2022/06/15 00:44:49;;;;;;;5.80;5.20;;;18.50;87.70;;;;;;5135287;27;20204;-68
2022/06/15 00:47:21;;;;;;;5.80;5.30;;;18.60;88.40;;;;;;5135203;27;20238;-67
2022/06/15 00:49:54;;;;;;;5.72;5.22;;;18.60;89.00;;;;;;5135159;27;20240;-68
2022/06/15 00:52:28;;;;;;;5.68;5.18;;;18.60;89.30;;;;;;5134986;27;20212;-68
2022/06/15 00:54:57;;;;;;;7.30;5.55;;;18.40;89.50;;;;;;5134937;27;20207;-68
2022/06/15 00:57:23;;;;;;;5.90;5.13;;;18.30;90.70;;;;;;5134977;27;20233;-67
2022/06/15 00:59:54;;;;;;;5.45;4.78;;;18.30;90.50;;;;;;5134996;27;20201;-67
2022/06/15 01:02:21;;;;;;;6.03;5.43;;;18.40;90.70;;;;;;5134864;27;20256;-67
2022/06/15 01:04:53;;;;;;;5.22;4.80;;;18.30;90.20;;;;;;5135049;27;20205;-67
2022/06/15 01:07:43;;;;;;;6.25;5.65;;;18.30;90.00;;;;;;5135271;27;20204;-68
2022/06/15 01:10:21;;;;;;;6.20;5.47;;;18.40;90.20;;;;;;5134654;27;20248;-68
2022/06/15 01:13:00;;;;;;;6.90;6.13;;;18.40;90.50;;;;;;5134698;27;20626;-68
2022/06/15 01:15:38;;;;;;;6.00;5.20;;;18.40;90.80;;;;;;5134854;27;20232;-67
2022/06/15 01:18:22;;;;;;;5.95;5.45;;;18.50;91.30;;;;;;5134814;27;20208;-68
2022/06/15 01:21:02;;;;;;;6.10;5.60;;;18.30;91.20;;;;;;5135037;27;20267;-68
2022/06/15 01:24:21;;;;;;;6.47;5.88;;;18.30;91.50;;;;;;5134519;27;20312;-68
2022/06/15 01:27:30;;;;;;;6.70;5.70;;;18.30;91.80;;;;;;5134740;27;20220;-68
2022/06/15 01:30:21;;;;;;;6.10;5.53;;;18.30;91.80;;;;;;5134647;27;20220;-68
2022/06/15 01:32:59;;;;;;;5.65;5.15;;;18.20;91.80;;;;;;5134024;27;20185;-67
2022/06/15 01:35:33;;;;;;;7.63;5.65;;;18.10;91.80;;;;;;5134583;27;20243;-67
2022/06/15 01:38:19;;;;;;;5.93;5.32;;;18.20;92.10;;;;;;5134606;27;20250;-67
2022/06/15 01:40:50;;;;;;;7.10;6.50;;;18.20;92.70;;;;;;5134379;27;20253;-68
2022/06/15 01:43:22;;;;;;;8.20;6.65;;;18.20;92.60;;;;;;5134148;27;20678;-68
2022/06/15 01:45:51;;;;;;;6.28;5.68;;;18.10;93.90;;;;;;5134293;27;20235;-68
2022/06/15 01:48:19;;;;;;;7.25;6.55;;;17.90;93.90;;;;;;5134456;27;20279;-68
2022/06/15 01:50:49;;;;;;;10.60;7.40;;;17.90;94.30;;;;;;5134362;27;20216;-67
2022/06/15 01:53:21;;;;;;;7.15;6.45;;;17.90;94.70;;;;;;5134079;27;20232;-68
2022/06/15 01:55:52;;;;;;;7.10;6.40;;;17.90;94.90;;;;;;5134376;27;20239;-68
2022/06/15 01:58:23;;;;;;;7.00;6.30;;;18.00;94.70;;;;;;5134433;27;20232;-67
2022/06/15 02:00:57;;;;;;;7.10;6.50;;;18.10;94.60;;;;;;5134409;27;20226;-67
2022/06/15 02:03:33;;;;;;;6.60;6.10;;;17.90;95.00;;;;;;5133937;27;20716;-68
2022/06/15 02:06:04;;;;;;;7.93;6.70;;;17.90;95.00;;;;;;5134279;27;20757;-67
2022/06/15 02:08:42;;;;;;;6.72;6.13;;;17.90;95.20;;;;;;5134373;27;20231;-68
2022/06/15 02:11:14;;;;;;;6.63;6.00;;;17.90;95.50;;;;;;5134299;27;20259;-67
2022/06/15 02:13:48;;;;;;;6.78;6.18;;;17.90;95.70;;;;;;5134124;27;20228;-68
2022/06/15 02:16:22;;;;;;;6.30;5.70;;;17.80;95.70;;;;;;5134248;27;20257;-68
2022/06/15 02:18:51;;;;;;;7.28;6.68;;;17.80;95.50;;;;;;5134238;27;20211;-68
2022/06/15 02:21:20;;;;;;;7.45;6.75;;;17.80;95.50;;;;;;5133906;27;20770;-68
2022/06/15 02:23:51;;;;;;;6.30;5.80;;;17.80;95.60;;;;;;5133951;27;20265;-68
2022/06/15 02:26:19;;;;;;;5.90;5.43;;;17.80;95.30;;;;;;5134190;27;20205;-68
2022/06/15 02:28:48;;;;;;;5.80;5.35;;;17.70;95.30;;;;;;5134114;27;20293;-68
2022/06/15 02:31:17;;;;;;;5.88;5.38;;;17.50;95.50;;;;;;5133821;27;20315;-67
2022/06/15 02:33:48;;;;;;;6.57;5.95;;;17.40;95.90;;;;;;5133695;27;20688;-68
2022/06/15 02:36:16;;;;;;;6.35;5.40;;;17.30;96.00;;;;;;5133905;27;20208;-68
2022/06/15 02:38:46;;;;;;;6.10;5.50;;;17.30;95.80;;;;;;5133912;27;20207;-67
2022/06/15 02:41:13;;;;;;;6.30;5.70;;;17.30;96.00;;;;;;5133947;27;20221;-68
2022/06/15 02:43:42;;;;;;;6.60;5.88;;;17.30;96.20;;;;;;5136053;27;20270;-68
2022/06/15 02:46:14;;;;;;;6.47;5.88;;;17.40;96.20;;;;;;5137454;27;20674;-67
2022/06/15 02:48:42;;;;;;;8.23;5.90;;;17.20;96.40;;;;;;5137690;27;20230;-68
2022/06/15 02:51:13;;;;;;;5.90;5.25;;;17.20;96.70;;;;;;5137559;27;20255;-67
2022/06/15 02:53:41;;;;;;;6.13;5.63;;;17.20;97.00;;;;;;5137274;27;20259;-67
2022/06/15 02:56:10;;;;;;;6.05;5.40;;;17.30;96.40;;;;;;5137328;27;20243;-67
2022/06/15 02:58:39;;;;;;;6.93;5.53;;;17.40;96.10;;;;;;5137407;27;20236;-67
2022/06/15 03:01:06;;;;;;;5.70;5.20;;;17.40;96.50;;;;;;5137053;27;20263;-67
2022/06/15 03:03:34;;;;;;;5.70;5.20;;;17.40;96.60;;;;;;5136944;27;20262;-67
2022/06/15 03:06:02;;;;;;;6.88;5.70;;;17.40;96.30;;;;;;5137294;27;20211;-68
2022/06/15 03:08:29;;;;;;;5.72;5.20;;;17.40;96.70;;;;;;5137182;27;20203;-68
2022/06/15 03:10:56;;;;;;;5.78;5.30;;;17.30;96.40;;;;;;5137397;27;20229;-68
2022/06/15 03:13:23;;;;;;;7.20;6.07;;;17.30;96.50;;;;;;5136786;27;20208;-68
2022/06/15 03:15:50;;;;;;;8.63;5.78;;;17.30;96.70;;;;;;5137154;27;20208;-67
2022/06/15 03:18:17;;;;;;;7.65;6.43;;;17.20;96.80;;;;;;5136929;27;20201;-68
2022/06/15 03:20:46;;;;;;;6.90;6.30;;;17.20;97.30;;;;;;5137045;27;20262;-68
2022/06/15 03:23:14;;;;;;;8.25;7.53;;;17.20;98.00;;;;;;5136988;27;20303;-68
2022/06/15 03:25:41;;;;;;;7.60;7.00;;;17.20;98.40;;;;;;5137043;27;20295;-67
2022/06/15 03:28:09;;;;;;;7.30;6.70;;;17.10;98.80;;;;;;5136793;27;20292;-67
2022/06/15 03:30:38;;;;;;;8.13;7.40;;;17.10;99.10;;;;;;5136867;27;20230;-67
2022/06/15 03:33:05;;;;;;;10.20;7.70;;;17.00;99.40;;;;;;5136989;27;20216;-67
2022/06/15 03:35:35;;;;;;;8.70;7.90;;;17.00;99.90;;;;;;5136670;27;20246;-67
2022/06/15 03:38:02;;;;;;;8.65;7.85;;;17.00;99.90;;;;;;5136611;27;20207;-67
2022/06/15 03:40:31;;;;;;;8.40;7.50;;;17.00;99.90;;;;;;5136651;27;20316;-67
2022/06/15 03:42:58;;;;;;;9.43;8.10;;;17.00;99.90;;;;;;5136189;27;20551;-68
2022/06/15 03:45:25;;;;;;;9.20;8.30;;;17.00;99.90;;;;;;5136484;27;20197;-67
2022/06/15 03:47:55;;;;;;;8.75;7.90;;;16.90;99.90;;;;;;5136515;27;20290;-68
2022/06/15 03:50:22;;;;;;;8.70;7.90;;;17.00;99.90;;;;;;5136274;27;20224;-67
2022/06/15 03:52:49;;;;;;;7.00;6.45;;;17.00;99.90;;;;;;5136076;27;20615;-68
2022/06/15 03:55:16;;;;;;;7.35;6.30;;;17.00;99.90;;;;;;5135600;27;20204;-67
2022/06/15 03:57:45;;;;;;;7.05;6.30;;;16.90;99.90;;;;;;5136177;27;20204;-68
2022/06/15 04:00:15;;;;;;;7.03;6.32;;;16.90;99.90;;;;;;5136179;27;20316;-68
2022/06/15 04:02:42;;;;;;;6.72;5.82;;;16.90;99.90;;;;;;5136153;27;20604;-68
2022/06/15 04:05:17;;;;;;;6.20;5.60;;;16.90;99.90;;;;;;5135766;27;20348;-67
2022/06/15 04:10:29;;;;;;;8.30;6.65;;;16.90;99.90;;;;;;5136062;27;20273;-67
2022/06/15 04:12:57;;;;;;;6.65;6.00;;;16.90;99.90;;;;;;5135844;27;20296;-67
2022/06/15 04:15:24;;;;;;;7.68;6.78;;;16.80;99.90;;;;;;5135799;27;20295;-67
2022/06/15 04:17:51;;;;;;;8.07;6.88;;;16.80;99.90;;;;;;5135897;27;20291;-67
2022/06/15 04:23:06;;;;;;;7.00;6.30;;;16.90;99.90;;;;;;5135150;27;20275;-68
2022/06/15 04:25:36;;;;;;;6.47;5.88;;;16.80;99.90;;;;;;5135682;27;20204;-67
2022/06/15 04:28:05;;;;;;;7.53;6.68;;;16.90;99.90;;;;;;5135407;27;20292;-67
2022/06/15 04:30:32;;;;;;;7.57;6.93;;;17.00;99.90;;;;;;5135636;27;20224;-67
2022/06/15 04:32:59;;;;;;;8.77;7.80;;;16.90;99.90;;;;;;5135317;27;20291;-67
2022/06/15 04:35:26;;;;;;;8.00;7.18;;;17.00;99.90;;;;;;5135557;27;20286;-68
2022/06/15 04:37:54;;;;;;;7.88;7.22;;;17.10;99.90;;;;;;5135490;27;20562;-68
2022/06/15 04:40:21;;;;;;;8.18;7.38;;;17.00;99.90;;;;;;5135267;27;20220;-67
2022/06/15 04:42:48;;;;;;;7.63;6.93;;;17.00;99.90;;;;;;5135620;27;20236;-67
2022/06/15 04:45:17;;;;;;;7.50;6.78;;;17.10;99.90;;;;;;5135315;27;20231;-68
2022/06/15 04:47:44;;;;;;;7.80;7.05;;;17.10;99.90;;;;;;5135366;27;20631;-68
2022/06/15 04:50:14;;;;;;;8.50;7.30;;;17.20;99.90;;;;;;5135191;27;20308;-67
2022/06/15 04:52:42;;;;;;;8.00;7.20;;;17.30;99.90;;;;;;5135062;27;20579;-68
2022/06/15 04:55:10;;;;;;;10.27;8.10;;;17.30;99.90;;;;;;5135236;27;20271;-67
2022/06/15 04:57:37;;;;;;;11.88;7.78;;;17.40;99.90;;;;;;5135118;27;20287;-67
2022/06/15 05:00:08;;;;;;;8.82;7.93;;;17.40;99.90;;;;;;5134999;27;20231;-68
2022/06/15 05:02:36;;;;;;;7.70;6.90;;;17.40;99.90;;;;;;5134751;27;20303;-67
2022/06/15 05:05:04;;;;;;;8.65;7.85;;;17.40;99.90;;;;;;5134971;27;20223;-68
2022/06/15 05:07:31;;;;;;;8.25;7.53;;;17.40;99.90;;;;;;5134923;27;20307;-67
2022/06/15 05:09:58;;;;;;;7.95;7.25;;;17.30;99.90;;;;;;5134844;27;20314;-68
2022/06/15 05:12:25;;;;;;;8.23;7.45;;;17.20;99.90;;;;;;5134816;27;20200;-67
2022/06/15 05:14:52;;;;;;;8.68;6.88;;;17.20;99.90;;;;;;5134776;27;20294;-68
2022/06/15 05:17:22;;;;;;;8.63;7.53;;;17.10;99.90;;;;;;5134851;27;20644;-68
2022/06/15 05:19:51;;;;;;;7.90;7.18;;;17.00;99.90;;;;;;5134754;27;20200;-68
2022/06/15 05:22:17;;;;;;;8.82;7.35;;;16.90;99.90;;;;;;5134346;27;20257;-67
2022/06/15 05:24:44;;;;;;;8.88;7.93;;;16.90;99.90;;;;;;5135222;27;20227;-68
2022/06/15 05:27:11;;;;;;;8.60;7.32;;;17.00;99.90;;;;;;5134821;27;20291;-68
2022/06/15 05:29:38;;;;;;;11.60;8.30;;;17.10;99.90;;;;;;5134515;27;20246;-68
2022/06/15 05:32:07;;;;;;;8.13;7.30;;;17.20;99.90;;;;;;5134548;27;20287;-69
2022/06/15 05:34:35;;;;;;;9.30;7.90;;;17.30;99.90;;;;;;5134588;27;20279;-68
2022/06/15 05:37:03;;;;;;;9.30;8.38;;;17.40;99.90;;;;;;5134584;27;20291;-68
2022/06/15 05:39:30;;;;;;;8.38;7.68;;;17.50;99.90;;;;;;5134648;27;20308;-68
2022/06/15 05:41:57;;;;;;;8.73;7.72;;;17.60;99.90;;;;;;5135306;27;20224;-68
2022/06/15 05:44:34;;;;;;;8.43;7.63;;;17.70;99.90;;;;;;5134312;27;20304;-68
2022/06/15 05:47:01;;;;;;;8.52;7.63;;;17.80;99.90;;;;;;5134522;27;20201;-68
2022/06/15 05:49:29;;;;;;;10.30;8.55;;;18.00;99.90;;;;;;5134926;27;20197;-68
2022/06/15 05:51:56;;;;;;;7.65;7.05;;;18.10;99.90;;;;;;5134549;27;20225;-68
2022/06/15 05:54:24;;;;;;;9.05;7.50;;;18.20;99.90;;;;;;5134310;27;20296;-68
2022/06/15 05:56:51;;;;;;;7.13;6.43;;;18.20;99.90;;;;;;5134644;27;20291;-67
2022/06/15 05:59:18;;;;;;;6.95;6.30;;;18.30;99.90;;;;;;5134361;27;20292;-68
2022/06/15 06:01:45;;;;;;;6.90;6.30;;;18.40;99.90;;;;;;5135073;27;20315;-68
2022/06/15 06:04:14;;;;;;;7.22;6.53;;;18.40;99.90;;;;;;5134167;27;20220;-68
2022/06/15 06:06:41;;;;;;;6.90;6.20;;;18.40;99.90;;;;;;5134046;27;20288;-67
2022/06/15 06:09:09;;;;;;;6.15;5.65;;;18.50;99.90;;;;;;5134326;27;20293;-68
2022/06/15 06:11:38;;;;;;;6.40;5.80;;;18.60;99.90;;;;;;5134326;27;20256;-67
2022/06/15 06:14:05;;;;;;;6.68;6.07;;;18.70;99.90;;;;;;5133790;27;20284;-68
2022/06/15 06:16:32;;;;;;;7.30;6.60;;;18.70;99.90;;;;;;5134278;27;20292;-68
2022/06/15 06:18:59;;;;;;;6.97;6.25;;;18.80;99.90;;;;;;5137256;27;20297;-67
2022/06/15 06:21:26;;;;;;;9.57;6.20;;;18.90;99.90;;;;;;5138202;27;20643;-68
2022/06/15 06:23:53;;;;;;;7.07;6.40;;;18.90;99.90;;;;;;5137921;27;20522;-68
2022/06/15 06:26:23;;;;;;;5.72;5.32;;;19.00;99.90;;;;;;5138033;27;20272;-67
2022/06/15 06:28:51;;;;;;;6.78;6.18;;;19.00;99.90;;;;;;5137781;27;20711;-67
2022/06/15 06:31:20;;;;;;;7.13;6.45;;;19.10;99.90;;;;;;5137988;27;20311;-68
2022/06/15 06:33:48;;;;;;;6.25;5.65;;;19.20;99.90;;;;;;5137640;27;20263;-68
2022/06/15 06:36:24;;;;;;;6.93;6.43;;;19.30;99.90;;;;;;5137808;27;20297;-68
2022/06/15 06:38:51;;;;;;;9.10;6.75;;;19.40;99.90;;;;;;5137915;27;20293;-68
2022/06/15 06:41:22;;;;;;;8.30;6.00;;;19.50;99.90;;;;;;5137573;27;20223;-68
2022/06/15 06:43:48;;;;;;;5.90;5.40;;;19.70;99.90;;;;;;5137560;27;20535;-67
2022/06/15 06:46:18;;;;;;;6.17;5.50;;;19.90;99.90;;;;;;5137715;27;20436;-68
2022/06/15 06:48:45;;;;;;;5.70;5.20;;;20.20;99.50;;;;;;5137647;27;20528;-68
2022/06/15 06:51:12;;;;;;;6.37;5.73;;;20.40;98.80;;;;;;5137506;27;21000;-68
2022/06/15 06:53:39;;;;;;;5.60;5.10;;;20.40;99.00;;;;;;5137224;27;20543;-68
2022/06/15 06:56:09;;;;;;;5.73;5.23;;;20.60;99.10;;;;;;5137502;27;20536;-68
2022/06/15 06:58:36;;;;;;;6.20;5.60;;;20.80;98.40;;;;;;5137484;27;20438;-68
2022/06/15 07:01:03;;;;;;;7.13;6.37;;;21.30;97.60;;;;;;5137654;27;20545;-68
2022/06/15 07:03:31;;;;;;;6.67;6.17;;;21.80;97.20;;;;;;5137071;27;20525;-68
2022/06/15 07:06:01;;;;;;;6.90;5.80;;;21.90;95.90;;;;;;5137230;27;20568;-68
2022/06/15 07:08:29;;;;;;;6.50;5.23;;;22.10;95.40;;;;;;5137150;27;20480;-68
2022/06/15 07:10:55;;;;;;;6.10;5.60;;;22.10;94.80;;;;;;5136904;27;20877;-67
2022/06/15 07:13:22;;;;;;;5.50;5.07;;;22.10;95.30;;;;;;5136877;27;20525;-68
2022/06/15 07:15:49;;;;;;;26.57;24.17;;;22.10;94.80;;;;;;5137149;27;20463;-68
2022/06/15 07:18:16;;;;;;;11.03;7.07;;;22.30;94.70;;;;;;5137090;27;20466;-68
2022/06/15 07:20:45;;;;;;;7.67;6.43;;;22.50;94.30;;;;;;5136925;27;20550;-68
2022/06/15 07:23:12;;;;;;;7.50;6.80;;;22.80;93.80;;;;;;5136917;27;20525;-68
2022/06/15 07:25:39;;;;;;;6.37;5.77;;;23.00;93.30;;;;;;5136866;27;20566;-68
2022/06/15 07:28:06;;;;;;;6.53;5.90;;;22.90;92.70;;;;;;5136923;27;20525;-68
2022/06/15 07:30:33;;;;;;;5.77;5.27;;;22.90;93.70;;;;;;5135569;27;20554;-68
2022/06/15 07:33:00;;;;;;;5.47;5.07;;;22.80;93.60;;;;;;5136985;27;20448;-68
2022/06/15 07:35:29;;;;;;;6.30;5.80;;;22.70;92.40;;;;;;5136710;27;20516;-68
2022/06/15 07:37:58;;;;;;;6.23;5.63;;;22.40;93.10;;;;;;5136657;27;20847;-68
2022/06/15 07:40:25;;;;;;;6.50;5.90;;;22.40;93.70;;;;;;5141388;27;20474;-69
2022/06/15 07:42:54;;;;;;;6.23;5.73;;;22.40;93.90;;;;;;5156167;27;20524;-69
2022/06/15 07:45:23;;;;;;;6.23;5.73;;;22.50;93.50;;;;;;5156109;27;20998;-69
2022/06/15 07:50:36;;;;;;;8.23;5.40;;;22.90;93.60;;;;;;5156474;27;20478;-68
2022/06/15 07:53:07;;;;;;;5.70;5.10;;;23.90;92.40;;;;;;5155741;27;20978;-68
2022/06/15 07:55:37;;;;;;;5.63;5.23;;;25.00;90.40;;;;;;5157007;27;20516;-68
2022/06/15 07:58:05;;;;;;;5.47;5.07;;;25.60;88.60;;;;;;5157524;27;20911;-68
2022/06/15 08:00:33;;;;;;;5.63;5.20;;;25.70;83.10;;;;;;5156996;27;20462;-68
2022/06/15 08:03:01;;;;;;;5.83;5.23;;;26.00;83.70;;;;;;5156789;27;20528;-68
2022/06/15 08:05:30;;;;;;;6.40;5.70;;;26.10;83.00;;;;;;5156704;27;20477;-68
2022/06/15 08:07:57;;;;;;;5.33;4.93;;;26.30;81.10;;;;;;5156870;27;20536;-68
2022/06/15 08:10:27;;;;;;;5.73;5.33;;;26.30;79.30;;;;;;5156675;27;20544;-68
2022/06/15 08:12:54;;;;;;;6.83;6.23;;;26.20;79.20;;;;;;5156593;27;20528;-68
2022/06/15 08:15:21;;;;;;;5.63;5.13;;;26.10;79.10;;;;;;5156456;27;20970;-68
2022/06/15 08:17:53;;;;;;;6.47;5.97;;;26.00;79.60;;;;;;5156636;27;20437;-68
2022/06/15 08:20:25;;;;;;;6.20;5.70;;;26.10;79.70;;;;;;5156458;27;20514;-68
2022/06/15 08:22:56;;;;;;;7.10;6.50;;;26.00;82.70;;;;;;5156535;27;20516;-68
2022/06/15 08:25:28;;;;;;;6.10;5.60;;;26.10;83.60;;;;;;5156437;27;20580;-68
2022/06/15 08:27:56;;;;;;;6.33;5.83;;;26.20;84.00;;;;;;5156533;27;20437;-68
2022/06/15 08:30:23;;;;;;;6.80;6.13;;;26.50;81.20;;;;;;5156159;27;20542;-68
2022/06/15 08:32:50;;;;;;;6.60;6.10;;;27.10;80.00;;;;;;5156291;27;20532;-68
2022/06/15 08:35:17;;;;;;;6.30;5.80;;;27.60;76.10;;;;;;5156186;27;20920;-68
2022/06/15 08:37:44;;;;;;;6.60;6.10;;;28.30;74.40;;;;;;5156117;27;20437;-68
2022/06/15 08:40:13;;;;;;;6.53;6.03;;;28.60;72.20;;;;;;5155909;27;20466;-68
2022/06/15 08:42:51;;;;;;;6.37;5.77;;;28.90;68.40;;;;;;5155930;27;20445;-68
2022/06/15 08:45:25;;;;;;;7.10;6.40;;;28.70;66.40;;;;;;5156168;27;20909;-68
2022/06/15 08:48:27;;;;;;;6.33;5.73;;;28.40;67.00;;;;;;5156066;27;20974;-68
2022/06/15 08:50:59;;;;;;;6.80;6.10;;;28.30;67.50;;;;;;5153505;27;20557;-68
2022/06/15 08:53:39;;;;;;;6.13;5.53;;;28.10;66.30;;;;;;5155444;27;20539;-68
2022/06/15 08:56:11;;;;;;;6.77;6.13;;;28.20;66.60;;;;;;5155836;27;20990;-68
2022/06/15 08:58:45;;;;;;;6.80;6.30;;;28.30;64.80;;;;;;5155905;27;20437;-68
2022/06/15 09:01:19;;;;;;;6.70;6.20;;;28.30;65.30;;;;;;5155925;27;20469;-68
2022/06/15 09:03:55;;;;;;;6.17;5.67;;;28.60;64.40;;;;;;5155727;27;20524;-68
2022/06/15 09:06:37;;;;;;;6.80;6.20;;;29.80;61.60;;;;;;5155849;27;20559;-68
2022/06/15 09:09:19;;;;;;;6.20;5.70;;;30.50;58.50;;;;;;5155722;27;20523;-68
2022/06/15 09:15:07;;;;;;;5.70;5.37;;;32.40;54.10;;;;;;5155771;27;20412;-68
2022/06/15 09:17:36;;;;;;;6.57;6.03;;;33.90;52.40;;;;;;5155605;27;20539;-68
2022/06/15 09:20:08;;;;;;;6.87;5.90;;;34.40;49.60;;;;;;5155539;27;20549;-69
2022/06/15 09:22:43;;;;;;;5.57;5.27;;;35.60;47.30;;;;;;5155681;27;20463;-69
2022/06/15 09:25:14;;;;;;;6.17;5.57;;;36.50;46.50;;;;;;5155528;27;20564;-68
2022/06/15 09:27:46;;;;;;;5.93;5.40;;;36.50;43.20;;;;;;5155517;27;20780;-68
2022/06/15 09:30:19;;;;;;;6.63;6.13;;;36.80;41.90;;;;;;5155148;27;20548;-69
2022/06/15 09:32:53;;;;;;;6.33;5.83;;;37.40;42.40;;;;;;5155254;27;20528;-69
2022/06/15 09:35:27;;;;;;;6.20;5.70;;;38.20;40.70;;;;;;5155282;27;20990;-69
2022/06/15 09:37:57;;;;;;;6.50;5.70;;;37.50;40.30;;;;;;5155332;27;20533;-69
2022/06/15 09:40:31;;;;;;;6.10;5.70;;;38.20;40.20;;;;;;5155261;27;20500;-69
2022/06/15 09:43:08;;;;;;;5.80;5.33;;;38.00;38.90;;;;;;5154932;27;20943;-69
2022/06/15 09:45:40;;;;;;;6.77;6.10;;;38.50;38.70;;;;;;5155237;27;20892;-69
2022/06/15 09:48:12;;;;;;;6.40;5.90;;;39.10;38.40;;;;;;5155259;27;20447;-67
2022/06/15 09:50:49;;;;;;;6.97;6.37;;;39.50;37.30;;;;;;5155108;27;20984;-67
2022/06/15 09:53:29;;;;;;;6.13;5.60;;;39.90;37.00;;;;;;5156712;27;20854;-67
2022/06/15 09:56:00;;;;;;;6.17;5.63;;;41.10;35.60;;;;;;5159519;27;20520;-67
2022/06/15 09:58:32;;;;;;;5.00;4.70;;;41.30;35.30;;;;;;5159428;27;20497;-68
2022/06/15 10:01:00;;;;;;;5.50;5.10;;;42.80;33.10;;;;;;5159371;27;20469;-67
2022/06/15 10:03:30;;;;;;;5.30;4.80;;;42.50;32.80;;;;;;5159160;27;20540;-67
2022/06/15 10:06:02;;;;;;;5.30;5.00;;;42.10;34.00;;;;;;5159186;27;20572;-67
2022/06/15 10:08:29;;;;;;;6.10;5.50;;;43.00;31.70;;;;;;5159214;27;20437;-67
2022/06/15 10:10:59;;;;;;;6.20;5.80;;;41.90;30.30;;;;;;5158839;27;20641;-67
2022/06/15 10:13:31;;;;;;;6.53;5.17;;;40.50;32.40;;;;;;5159270;27;20967;-67
2022/06/15 10:16:02;;;;;;;6.50;6.10;;;39.00;34.00;;;;;;5158999;27;20478;-67
2022/06/15 10:18:33;;;;;;;5.70;5.40;;;39.30;35.70;;;;;;5159197;27;20516;-67
2022/06/15 10:21:07;;;;;;;6.90;6.20;;;39.30;34.10;;;;;;5159182;27;20465;-67
2022/06/15 10:23:49;;;;;;;6.50;6.00;;;38.60;34.20;;;;;;5158638;27;20441;-67
2022/06/15 10:26:26;;;;;;;6.43;6.03;;;37.80;36.90;;;;;;5158672;27;20494;-67
2022/06/15 10:28:53;;;;;;;6.20;5.77;;;37.50;37.00;;;;;;5158838;27;20526;-67
2022/06/15 10:31:28;;;;;;;6.10;5.60;;;36.60;37.20;;;;;;5158730;27;20557;-67
2022/06/15 10:33:57;;;;;;;6.13;5.63;;;36.20;38.90;;;;;;5159019;27;20532;-66
2022/06/15 10:36:30;;;;;;;6.00;5.50;;;35.80;38.40;;;;;;5158762;27;20437;-66
2022/06/15 10:39:01;;;;;;;5.93;5.53;;;35.30;38.70;;;;;;5158863;27;20433;-67
2022/06/15 10:41:46;;;;;;;6.07;5.47;;;34.40;38.90;;;;;;5158612;27;20891;-68
2022/06/15 10:44:14;;;;;;;6.33;5.70;;;33.30;42.00;;;;;;5158364;27;20544;-69
2022/06/15 10:46:53;;;;;;;6.50;6.00;;;32.70;44.70;;;;;;5158461;27;20565;-68
2022/06/15 10:49:22;;;;;;;6.47;6.00;;;32.20;45.60;;;;;;5158514;27;20523;-68
2022/06/15 10:51:49;;;;;;;6.30;5.80;;;31.90;44.60;;;;;;5158227;27;20459;-68
2022/06/15 10:54:23;;;;;;;6.47;5.97;;;31.20;43.70;;;;;;5157862;27;21008;-68
2022/06/15 11:02:31;;;;;;;6.90;6.30;;;30.00;44.50;;;;;;5158046;27;20401;-68
2022/06/15 11:05:04;;;;;;;5.80;5.37;;;30.10;46.50;;;;;;5157870;27;20533;-68
2022/06/15 11:07:35;;;;;;;6.40;5.90;;;30.10;45.40;;;;;;5157941;27;20473;-68
2022/06/15 11:10:08;;;;;;;6.60;6.00;;;30.10;46.40;;;;;;5157754;27;20997;-68
2022/06/15 11:12:48;;;;;;;6.03;5.60;;;29.90;47.30;;;;;;5157631;27;20513;-68
2022/06/15 11:18:26;;;;;;;6.07;5.60;;;29.70;46.90;;;;;;5157424;27;20410;-68
2022/06/15 11:20:59;;;;;;;6.30;5.70;;;29.70;47.60;;;;;;5157497;27;20539;-68
2022/06/15 11:23:31;;;;;;;5.90;5.50;;;29.80;46.50;;;;;;5157525;27;20436;-68
2022/06/15 11:26:51;;;;;;;6.60;6.10;;;29.90;47.30;;;;;;5157582;27;20473;-68
2022/06/15 11:28:55;;;;;;;6.60;5.80;;;30.00;47.30;;;;;;5157303;27;20450;-68
2022/06/15 11:31:26;;;;;;;6.70;6.20;;;30.30;46.00;;;;;;5157626;27;20489;-68
2022/06/15 11:34:01;;;;;;;5.80;5.40;;;30.10;45.80;;;;;;5157410;27;20529;-68
2022/06/15 11:36:31;;;;;;;5.73;5.23;;;29.90;46.00;;;;;;5157594;27;20813;-68
2022/06/15 11:39:04;;;;;;;6.40;5.90;;;29.90;46.40;;;;;;5157499;27;20438;-69
2022/06/15 11:41:36;;;;;;;5.67;5.10;;;30.10;46.80;;;;;;5157395;27;20465;-68
2022/06/15 11:44:12;;;;;;;5.47;5.07;;;30.20;46.40;;;;;;5157284;27;20444;-68
2022/06/15 11:46:56;;;;;;;5.73;5.33;;;30.00;45.10;;;;;;5157143;27;20560;-68
2022/06/15 11:49:35;;;;;;;5.13;4.73;;;30.00;45.50;;;;;;5156968;27;20441;-68
2022/06/15 11:52:29;;;;;;;5.20;4.90;;;30.10;45.10;;;;;;5157253;27;20573;-68
2022/06/15 11:55:15;;;;;;;5.93;5.43;;;30.20;44.90;;;;;;5157198;27;20442;-68
2022/06/15 11:57:54;;;;;;;5.27;4.83;;;30.20;45.20;;;;;;5157057;27;20442;-68
2022/06/15 12:00:28;;;;;;;5.33;4.83;;;30.10;44.40;;;;;;5157081;27;20467;-68
2022/06/15 12:03:32;;;;;;;5.63;5.23;;;30.10;44.90;;;;;;5156795;27;20440;-68
2022/06/15 12:06:06;;;;;;;5.50;5.10;;;30.10;45.00;;;;;;5156785;27;20564;-68
2022/06/15 12:08:40;;;;;;;5.93;5.33;;;30.30;45.50;;;;;;5156875;27;20442;-68
2022/06/15 12:14:14;;;;;;;4.93;4.53;;;30.40;42.90;;;;;;5097934;27;20522;-69
2022/06/15 12:16:46;;;;;;;5.83;5.33;;;30.60;44.70;;;;;;5156056;27;20462;-68
2022/06/15 12:19:21;;;;;;;4.70;4.40;;;30.80;44.30;;;;;;5156472;27;20969;-68
2022/06/15 12:21:56;;;;;;;4.90;4.60;;;30.80;42.90;;;;;;5156598;27;20546;-68
2022/06/15 12:24:30;;;;;;;5.13;4.77;;;30.90;43.10;;;;;;5156296;27;20429;-68
2022/06/15 12:27:04;;;;;;;5.57;4.63;;;30.60;43.20;;;;;;5156304;27;20466;-68
2022/06/15 12:29:48;;;;;;;4.93;4.53;;;30.50;42.70;;;;;;5156883;27;20537;-68
2022/06/15 12:35:26;;;;;;;4.60;4.23;;;30.40;42.30;;;;;;5153587;27;20448;-68
2022/06/15 12:37:59;;;;;;;5.00;4.60;;;30.60;43.20;;;;;;5156347;27;20473;-68
2022/06/15 12:40:31;;;;;;;6.43;4.70;;;30.80;42.50;;;;;;5155955;27;21027;-69
2022/06/15 12:43:08;;;;;;;4.60;4.30;;;30.90;42.70;;;;;;5155709;27;20475;-68
2022/06/15 12:45:38;;;;;;;5.17;4.87;;;30.80;42.30;;;;;;5156008;27;20429;-69
2022/06/15 12:48:14;;;;;;;5.03;4.73;;;30.60;43.20;;;;;;5156325;27;20534;-68
2022/06/15 12:50:54;;;;;;;5.90;5.40;;;30.40;43.20;;;;;;5156083;27;20551;-68
2022/06/15 12:53:34;;;;;;;5.47;5.13;;;30.40;43.40;;;;;;5155582;27;20544;-68
2022/06/15 12:56:11;;;;;;;5.33;4.90;;;30.40;43.90;;;;;;5156003;27;20824;-69
2022/06/15 12:58:52;;;;;;;4.80;4.50;;;30.30;45.00;;;;;;5155952;27;20520;-68
2022/06/15 13:01:23;;;;;;;6.00;5.13;;;30.20;44.20;;;;;;5155983;27;20457;-68
2022/06/15 13:04:03;;;;;;;5.17;4.77;;;29.90;44.30;;;;;;5155624;27;20908;-68
2022/06/15 13:06:32;;;;;;;5.47;5.07;;;29.90;44.00;;;;;;5155620;27;21077;-68
2022/06/15 13:09:18;;;;;;;5.10;4.80;;;30.10;45.10;;;;;;5155794;27;20529;-68
2022/06/15 13:11:51;;;;;;;5.47;5.07;;;30.30;44.50;;;;;;5153694;27;20472;-68
2022/06/15 13:14:20;;;;;;;5.17;4.70;;;30.20;43.30;;;;;;5155419;27;20989;-68
2022/06/15 13:17:00;;;;;;;5.80;5.40;;;30.20;43.20;;;;;;5155690;27;20469;-68
2022/06/15 13:19:30;;;;;;;5.70;5.20;;;30.30;44.40;;;;;;5155395;27;20911;-68
2022/06/15 13:22:06;;;;;;;5.40;4.90;;;30.50;44.30;;;;;;5155279;27;20540;-68
2022/06/15 13:24:48;;;;;;;5.00;4.70;;;30.40;42.80;;;;;;5155572;27;20533;-68
2022/06/15 13:27:21;;;;;;;5.27;4.97;;;30.10;43.10;;;;;;5154441;27;20572;-69
2022/06/15 13:29:52;;;;;;;5.43;4.93;;;30.30;43.40;;;;;;5155406;27;20477;-69
2022/06/15 13:32:48;;;;;;;8.70;7.90;;;30.50;44.00;;;;;;5155322;27;20434;-68